sensor_id;sensor_type;location;lat;lon;timestamp;pressure;altitude;pressure_sealevel;temperature;humidity
34297;BME280;20564;42.902;25.336;2023-12-14T00:01:54;96158.16;;;4.73;100.00
34297;BME280;20564;42.902;25.336;2023-12-14T00:04:21;96152.53;;;4.77;100.00
34297;BME280;20564;42.902;25.336;2023-12-14T00:06:48;96144.31;;;4.82;100.00
34297;BME280;20564;42.902;25.336;2023-12-14T00:09:15;96144.16;;;4.74;100.00
34297;BME280;20564;42.902;25.336;2023-12-14T00:11:43;96155.97;;;4.78;100.00
34297;BME280;20564;42.902;25.336;2023-12-14T00:14:10;96154.59;;;4.74;100.00
34297;BME280;20564;42.902;25.336;2023-12-14T00:16:37;96158.97;;;4.73;100.00
34297;BME280;20564;42.902;25.336;2023-12-14T00:19:04;96156.13;;;4.76;100.00
34297;BME280;20564;42.902;25.336;2023-12-14T00:21:30;96151.97;;;4.74;100.00
34297;BME280;20564;42.902;25.336;2023-12-14T00:23:57;96165.84;;;4.74;100.00
34297;BME280;20564;42.902;25.336;2023-12-14T00:26:24;96164.19;;;4.73;100.00
34297;BME280;20564;42.902;25.336;2023-12-14T00:28:51;96165.41;;;4.69;100.00
34297;BME280;20564;42.902;25.336;2023-12-14T00:31:27;96170.72;;;4.68;100.00
34297;BME280;20564;42.902;25.336;2023-12-14T00:33:54;96173.22;;;4.69;100.00
34297;BME280;20564;42.902;25.336;2023-12-14T00:36:21;96164.84;;;4.66;100.00
34297;BME280;20564;42.902;25.336;2023-12-14T00:38:48;96168.59;;;4.73;100.00
34297;BME280;20564;42.902;25.336;2023-12-14T00:41:15;96164.75;;;4.77;100.00
34297;BME280;20564;42.902;25.336;2023-12-14T00:43:42;96169.97;;;4.77;100.00
34297;BME280;20564;42.902;25.336;2023-12-14T00:46:09;96167.19;;;4.69;100.00
34297;BME280;20564;42.902;25.336;2023-12-14T00:48:38;96164.34;;;4.72;100.00
34297;BME280;20564;42.902;25.336;2023-12-14T00:51:05;96156.75;;;4.69;100.00
34297;BME280;20564;42.902;25.336;2023-12-14T00:53:32;96153.75;;;4.73;100.00
34297;BME280;20564;42.902;25.336;2023-12-14T00:55:59;96158.41;;;4.70;100.00
34297;BME280;20564;42.902;25.336;2023-12-14T00:58:26;96154.03;;;4.70;100.00
34297;BME280;20564;42.902;25.336;2023-12-14T01:00:53;96153.69;;;4.64;100.00
34297;BME280;20564;42.902;25.336;2023-12-14T01:03:21;96150.16;;;4.65;100.00
34297;BME280;20564;42.902;25.336;2023-12-14T01:05:48;96147.66;;;4.63;100.00
34297;BME280;20564;42.902;25.336;2023-12-14T01:08:15;96152.06;;;4.63;100.00
34297;BME280;20564;42.902;25.336;2023-12-14T01:10:42;96157.28;;;4.63;100.00
34297;BME280;20564;42.902;25.336;2023-12-14T01:13:10;96161.53;;;4.64;100.00
34297;BME280;20564;42.902;25.336;2023-12-14T01:15:37;96172.09;;;4.62;100.00
34297;BME280;20564;42.902;25.336;2023-12-14T01:18:04;96167.94;;;4.59;100.00
34297;BME280;20564;42.902;25.336;2023-12-14T01:20:32;96158.88;;;4.54;100.00
34297;BME280;20564;42.902;25.336;2023-12-14T01:22:59;96154.03;;;4.49;100.00
34297;BME280;20564;42.902;25.336;2023-12-14T01:25:26;96144.31;;;4.51;100.00
34297;BME280;20564;42.902;25.336;2023-12-14T01:27:53;96141.22;;;4.57;100.00
34297;BME280;20564;42.902;25.336;2023-12-14T01:30:20;96149.72;;;4.59;100.00
34297;BME280;20564;42.902;25.336;2023-12-14T01:32:47;96136.69;;;4.59;100.00
34297;BME280;20564;42.902;25.336;2023-12-14T01:35:14;96138.84;;;4.54;100.00
34297;BME280;20564;42.902;25.336;2023-12-14T01:37:41;96132.44;;;4.58;100.00
34297;BME280;20564;42.902;25.336;2023-12-14T01:40:08;96138.59;;;4.57;100.00
34297;BME280;20564;42.902;25.336;2023-12-14T01:42:36;96135.03;;;4.58;100.00
34297;BME280;20564;42.902;25.336;2023-12-14T01:45:04;96128.19;;;4.57;100.00
34297;BME280;20564;42.902;25.336;2023-12-14T01:47:32;96132.25;;;4.50;100.00
34297;BME280;20564;42.902;25.336;2023-12-14T01:49:59;96144.81;;;4.45;100.00
34297;BME280;20564;42.902;25.336;2023-12-14T01:52:26;96138.78;;;4.45;100.00
34297;BME280;20564;42.902;25.336;2023-12-14T01:54:53;96132.75;;;4.44;100.00
34297;BME280;20564;42.902;25.336;2023-12-14T01:57:21;96135.88;;;4.38;100.00
34297;BME280;20564;42.902;25.336;2023-12-14T01:59:48;96136.31;;;4.43;100.00
34297;BME280;20564;42.902;25.336;2023-12-14T02:02:15;96139.88;;;4.42;100.00
34297;BME280;20564;42.902;25.336;2023-12-14T02:04:42;96143.34;;;4.52;100.00
34297;BME280;20564;42.902;25.336;2023-12-14T02:07:09;96148.38;;;4.44;100.00
34297;BME280;20564;42.902;25.336;2023-12-14T02:09:36;96137.41;;;4.41;100.00
34297;BME280;20564;42.902;25.336;2023-12-14T02:12:04;96133.00;;;4.41;100.00
34297;BME280;20564;42.902;25.336;2023-12-14T02:14:31;96129.72;;;4.39;100.00
34297;BME280;20564;42.902;25.336;2023-12-14T02:16:58;96129.44;;;4.42;100.00
34297;BME280;20564;42.902;25.336;2023-12-14T02:19:24;96125.09;;;4.43;100.00
34297;BME280;20564;42.902;25.336;2023-12-14T02:21:52;96119.56;;;4.36;100.00
34297;BME280;20564;42.902;25.336;2023-12-14T02:24:19;96120.94;;;4.40;100.00
34297;BME280;20564;42.902;25.336;2023-12-14T02:26:46;96108.34;;;4.45;100.00
34297;BME280;20564;42.902;25.336;2023-12-14T02:29:29;96105.44;;;4.39;100.00
34297;BME280;20564;42.902;25.336;2023-12-14T02:31:56;96118.09;;;4.43;100.00
34297;BME280;20564;42.902;25.336;2023-12-14T02:34:23;96109.16;;;4.46;100.00
34297;BME280;20564;42.902;25.336;2023-12-14T02:36:52;96113.06;;;4.51;100.00
34297;BME280;20564;42.902;25.336;2023-12-14T02:39:19;96114.84;;;4.51;100.00
34297;BME280;20564;42.902;25.336;2023-12-14T02:41:46;96110.31;;;4.53;100.00
34297;BME280;20564;42.902;25.336;2023-12-14T02:44:13;96098.94;;;4.54;100.00
34297;BME280;20564;42.902;25.336;2023-12-14T02:46:40;96105.94;;;4.53;100.00
34297;BME280;20564;42.902;25.336;2023-12-14T02:49:08;96097.84;;;4.56;100.00
34297;BME280;20564;42.902;25.336;2023-12-14T02:51:35;96099.38;;;4.59;100.00
34297;BME280;20564;42.902;25.336;2023-12-14T02:54:02;96090.03;;;4.56;100.00
34297;BME280;20564;42.902;25.336;2023-12-14T02:56:29;96091.56;;;4.59;100.00
34297;BME280;20564;42.902;25.336;2023-12-14T02:58:56;96090.22;;;4.65;100.00
34297;BME280;20564;42.902;25.336;2023-12-14T03:01:23;96089.50;;;4.63;100.00
34297;BME280;20564;42.902;25.336;2023-12-14T03:03:51;96086.25;;;4.70;100.00
34297;BME280;20564;42.902;25.336;2023-12-14T03:06:17;96095.84;;;4.70;100.00
34297;BME280;20564;42.902;25.336;2023-12-14T03:08:44;96106.03;;;4.73;100.00
34297;BME280;20564;42.902;25.336;2023-12-14T03:11:21;96093.66;;;4.75;100.00
34297;BME280;20564;42.902;25.336;2023-12-14T03:13:49;96100.41;;;4.77;100.00
34297;BME280;20564;42.902;25.336;2023-12-14T03:16:17;96096.19;;;4.86;100.00
34297;BME280;20564;42.902;25.336;2023-12-14T03:18:44;96093.72;;;4.84;100.00
34297;BME280;20564;42.902;25.336;2023-12-14T03:21:11;96087.94;;;4.81;100.00
34297;BME280;20564;42.902;25.336;2023-12-14T03:23:38;96086.03;;;4.83;100.00
34297;BME280;20564;42.902;25.336;2023-12-14T03:26:05;96094.28;;;4.88;100.00
34297;BME280;20564;42.902;25.336;2023-12-14T03:28:32;96097.03;;;4.87;100.00
34297;BME280;20564;42.902;25.336;2023-12-14T03:30:59;96086.59;;;4.87;100.00
34297;BME280;20564;42.902;25.336;2023-12-14T03:33:27;96094.28;;;4.88;100.00
34297;BME280;20564;42.902;25.336;2023-12-14T03:35:54;96104.44;;;4.91;100.00
34297;BME280;20564;42.902;25.336;2023-12-14T03:38:22;96098.72;;;4.97;100.00
34297;BME280;20564;42.902;25.336;2023-12-14T03:40:49;96096.78;;;4.99;100.00
34297;BME280;20564;42.902;25.336;2023-12-14T03:43:16;96095.25;;;4.97;100.00
34297;BME280;20564;42.902;25.336;2023-12-14T03:45:43;96094.44;;;4.96;100.00
34297;BME280;20564;42.902;25.336;2023-12-14T03:48:11;96096.53;;;5.02;100.00
34297;BME280;20564;42.902;25.336;2023-12-14T03:50:38;96103.38;;;5.03;100.00
34297;BME280;20564;42.902;25.336;2023-12-14T03:53:05;96098.72;;;4.97;100.00
34297;BME280;20564;42.902;25.336;2023-12-14T03:55:32;96091.59;;;5.09;100.00
34297;BME280;20564;42.902;25.336;2023-12-14T03:57:59;96082.53;;;5.03;100.00
34297;BME280;20564;42.902;25.336;2023-12-14T04:00:27;96084.16;;;4.95;100.00
34297;BME280;20564;42.902;25.336;2023-12-14T04:02:53;96084.56;;;4.90;100.00
34297;BME280;20564;42.902;25.336;2023-12-14T04:05:21;96079.50;;;4.98;100.00
34297;BME280;20564;42.902;25.336;2023-12-14T04:07:48;96078.28;;;5.02;100.00
34297;BME280;20564;42.902;25.336;2023-12-14T04:10:15;96089.94;;;4.98;100.00
34297;BME280;20564;42.902;25.336;2023-12-14T04:12:42;96080.28;;;4.89;100.00
34297;BME280;20564;42.902;25.336;2023-12-14T04:15:12;96057.63;;;4.90;100.00
34297;BME280;20564;42.902;25.336;2023-12-14T04:17:39;96077.16;;;4.95;100.00
34297;BME280;20564;42.902;25.336;2023-12-14T04:20:06;96087.19;;;5.00;100.00
34297;BME280;20564;42.902;25.336;2023-12-14T04:22:34;96078.16;;;5.14;100.00
34297;BME280;20564;42.902;25.336;2023-12-14T04:25:01;96071.41;;;5.11;100.00
34297;BME280;20564;42.902;25.336;2023-12-14T04:27:28;96068.69;;;5.13;100.00
34297;BME280;20564;42.902;25.336;2023-12-14T04:29:56;96083.13;;;5.17;100.00
34297;BME280;20564;42.902;25.336;2023-12-14T04:32:24;96085.59;;;5.28;100.00
34297;BME280;20564;42.902;25.336;2023-12-14T04:34:51;96076.53;;;5.32;100.00
34297;BME280;20564;42.902;25.336;2023-12-14T04:37:18;96066.09;;;5.32;100.00
34297;BME280;20564;42.902;25.336;2023-12-14T04:39:45;96060.22;;;5.40;100.00
34297;BME280;20564;42.902;25.336;2023-12-14T04:42:12;96074.91;;;5.50;100.00
34297;BME280;20564;42.902;25.336;2023-12-14T04:44:38;96071.34;;;5.61;100.00
34297;BME280;20564;42.902;25.336;2023-12-14T04:47:06;96075.22;;;5.67;100.00
34297;BME280;20564;42.902;25.336;2023-12-14T04:49:33;96077.13;;;5.84;100.00
34297;BME280;20564;42.902;25.336;2023-12-14T04:52:00;96077.16;;;6.03;100.00
34297;BME280;20564;42.902;25.336;2023-12-14T04:54:27;96073.00;;;6.11;100.00
34297;BME280;20564;42.902;25.336;2023-12-14T04:56:54;96074.66;;;6.12;100.00
34297;BME280;20564;42.902;25.336;2023-12-14T04:59:20;96071.22;;;6.01;100.00
34297;BME280;20564;42.902;25.336;2023-12-14T05:01:47;96082.63;;;6.10;100.00
34297;BME280;20564;42.902;25.336;2023-12-14T05:04:14;96068.06;;;6.08;100.00
34297;BME280;20564;42.902;25.336;2023-12-14T05:06:41;96074.13;;;5.98;100.00
34297;BME280;20564;42.902;25.336;2023-12-14T05:09:08;96081.56;;;5.93;100.00
34297;BME280;20564;42.902;25.336;2023-12-14T05:11:35;96063.38;;;6.11;100.00
34297;BME280;20564;42.902;25.336;2023-12-14T05:14:01;96063.38;;;6.11;100.00
34297;BME280;20564;42.902;25.336;2023-12-14T05:16:29;96069.44;;;6.02;100.00
34297;BME280;20564;42.902;25.336;2023-12-14T05:18:57;96077.53;;;6.09;100.00
34297;BME280;20564;42.902;25.336;2023-12-14T05:21:24;96066.38;;;6.16;100.00
34297;BME280;20564;42.902;25.336;2023-12-14T05:23:51;96071.31;;;6.29;100.00
34297;BME280;20564;42.902;25.336;2023-12-14T05:26:19;96057.34;;;6.11;100.00
34297;BME280;20564;42.902;25.336;2023-12-14T05:28:46;96074.88;;;6.28;100.00
34297;BME280;20564;42.902;25.336;2023-12-14T05:31:12;96074.34;;;6.34;100.00
34297;BME280;20564;42.902;25.336;2023-12-14T05:33:39;96086.41;;;6.35;100.00
34297;BME280;20564;42.902;25.336;2023-12-14T05:36:07;96081.78;;;6.29;100.00
34297;BME280;20564;42.902;25.336;2023-12-14T05:38:41;96081.19;;;6.35;100.00
34297;BME280;20564;42.902;25.336;2023-12-14T05:41:08;96076.94;;;6.34;100.00
34297;BME280;20564;42.902;25.336;2023-12-14T05:43:37;96081.63;;;6.21;100.00
34297;BME280;20564;42.902;25.336;2023-12-14T05:46:04;96082.06;;;6.26;100.00
34297;BME280;20564;42.902;25.336;2023-12-14T05:48:31;96085.38;;;6.09;100.00
34297;BME280;20564;42.902;25.336;2023-12-14T05:51:00;96074.78;;;5.91;100.00
34297;BME280;20564;42.902;25.336;2023-12-14T05:53:27;96081.28;;;5.96;100.00
34297;BME280;20564;42.902;25.336;2023-12-14T05:55:54;96092.50;;;5.87;100.00
34297;BME280;20564;42.902;25.336;2023-12-14T05:58:22;96089.22;;;5.85;100.00
34297;BME280;20564;42.902;25.336;2023-12-14T06:00:52;96081.78;;;5.90;100.00
34297;BME280;20564;42.902;25.336;2023-12-14T06:03:19;96086.63;;;5.85;100.00
34297;BME280;20564;42.902;25.336;2023-12-14T06:05:46;96092.09;;;5.92;100.00
34297;BME280;20564;42.902;25.336;2023-12-14T06:08:13;96091.41;;;5.90;100.00
34297;BME280;20564;42.902;25.336;2023-12-14T06:10:40;96093.88;;;5.91;100.00
34297;BME280;20564;42.902;25.336;2023-12-14T06:13:07;96101.03;;;5.89;100.00
34297;BME280;20564;42.902;25.336;2023-12-14T06:15:34;96091.72;;;5.96;100.00
34297;BME280;20564;42.902;25.336;2023-12-14T06:18:01;96104.59;;;5.88;100.00
34297;BME280;20564;42.902;25.336;2023-12-14T06:20:28;96096.09;;;5.96;100.00
34297;BME280;20564;42.902;25.336;2023-12-14T06:22:55;96097.22;;;5.93;100.00
34297;BME280;20564;42.902;25.336;2023-12-14T06:25:22;96111.66;;;5.97;100.00
34297;BME280;20564;42.902;25.336;2023-12-14T06:27:48;96111.50;;;6.09;100.00
34297;BME280;20564;42.902;25.336;2023-12-14T06:30:16;96109.44;;;6.02;100.00
34297;BME280;20564;42.902;25.336;2023-12-14T06:32:43;96116.19;;;6.15;100.00
34297;BME280;20564;42.902;25.336;2023-12-14T06:35:10;96120.16;;;6.19;100.00
34297;BME280;20564;42.902;25.336;2023-12-14T06:37:37;96120.56;;;6.24;100.00
34297;BME280;20564;42.902;25.336;2023-12-14T06:40:05;96113.53;;;6.24;100.00
34297;BME280;20564;42.902;25.336;2023-12-14T06:42:32;96125.19;;;6.40;100.00
34297;BME280;20564;42.902;25.336;2023-12-14T06:45:02;96126.03;;;6.40;100.00
34297;BME280;20564;42.902;25.336;2023-12-14T06:47:31;96124.91;;;6.52;100.00
34297;BME280;20564;42.902;25.336;2023-12-14T06:49:58;96131.78;;;6.53;100.00
34297;BME280;20564;42.902;25.336;2023-12-14T06:52:25;96133.00;;;6.59;100.00
34297;BME280;20564;42.902;25.336;2023-12-14T06:54:52;96132.59;;;6.64;100.00
34297;BME280;20564;42.902;25.336;2023-12-14T06:57:19;96132.03;;;6.70;100.00
34297;BME280;20564;42.902;25.336;2023-12-14T06:59:48;96133.09;;;6.77;100.00
34297;BME280;20564;42.902;25.336;2023-12-14T07:02:15;96135.25;;;6.91;100.00
34297;BME280;20564;42.902;25.336;2023-12-14T07:04:42;96133.03;;;6.96;100.00
34297;BME280;20564;42.902;25.336;2023-12-14T07:07:09;96137.91;;;7.09;100.00
34297;BME280;20564;42.902;25.336;2023-12-14T07:09:35;96123.28;;;7.16;100.00
34297;BME280;20564;42.902;25.336;2023-12-14T07:12:02;96132.75;;;7.27;100.00
34297;BME280;20564;42.902;25.336;2023-12-14T07:14:31;96131.47;;;7.31;100.00
34297;BME280;20564;42.902;25.336;2023-12-14T07:16:58;96127.50;;;7.55;100.00
34297;BME280;20564;42.902;25.336;2023-12-14T07:19:25;96128.03;;;7.58;100.00
34297;BME280;20564;42.902;25.336;2023-12-14T07:21:52;96143.69;;;7.68;100.00
34297;BME280;20564;42.902;25.336;2023-12-14T07:24:19;96142.19;;;7.83;100.00
34297;BME280;20564;42.902;25.336;2023-12-14T07:26:46;96147.72;;;7.80;100.00
34297;BME280;20564;42.902;25.336;2023-12-14T07:29:13;96149.84;;;7.94;100.00
34297;BME280;20564;42.902;25.336;2023-12-14T07:31:40;96150.72;;;8.21;100.00
34297;BME280;20564;42.902;25.336;2023-12-14T07:34:07;96150.34;;;8.34;100.00
34297;BME280;20564;42.902;25.336;2023-12-14T07:36:34;96161.75;;;8.42;100.00
34297;BME280;20564;42.902;25.336;2023-12-14T07:39:01;96165.13;;;8.53;100.00
34297;BME280;20564;42.902;25.336;2023-12-14T07:41:28;96160.59;;;8.63;100.00
34297;BME280;20564;42.902;25.336;2023-12-14T07:43:56;96167.88;;;8.77;100.00
34297;BME280;20564;42.902;25.336;2023-12-14T07:46:23;96166.97;;;8.86;100.00
34297;BME280;20564;42.902;25.336;2023-12-14T07:48:50;96169.03;;;9.01;100.00
34297;BME280;20564;42.902;25.336;2023-12-14T07:51:17;96162.91;;;9.18;100.00
34297;BME280;20564;42.902;25.336;2023-12-14T07:53:44;96152.28;;;9.36;100.00
34297;BME280;20564;42.902;25.336;2023-12-14T07:56:13;96157.59;;;9.52;100.00
34297;BME280;20564;42.902;25.336;2023-12-14T07:58:40;96152.38;;;9.69;100.00
34297;BME280;20564;42.902;25.336;2023-12-14T08:01:07;96150.63;;;9.85;100.00
34297;BME280;20564;42.902;25.336;2023-12-14T08:03:35;96162.16;;;9.93;100.00
34297;BME280;20564;42.902;25.336;2023-12-14T08:06:02;96157.91;;;10.08;100.00
34297;BME280;20564;42.902;25.336;2023-12-14T08:08:29;96176.34;;;10.24;100.00
34297;BME280;20564;42.902;25.336;2023-12-14T08:10:56;96158.59;;;10.34;100.00
34297;BME280;20564;42.902;25.336;2023-12-14T08:13:23;96165.03;;;10.48;100.00
34297;BME280;20564;42.902;25.336;2023-12-14T08:15:50;96185.28;;;10.64;100.00
34297;BME280;20564;42.902;25.336;2023-12-14T08:18:17;96186.25;;;10.79;96.51
34297;BME280;20564;42.902;25.336;2023-12-14T08:20:44;96207.28;;;10.88;88.29
34297;BME280;20564;42.902;25.336;2023-12-14T08:23:11;96228.34;;;10.71;87.55
34297;BME280;20564;42.902;25.336;2023-12-14T08:25:38;96231.16;;;10.53;87.53
34297;BME280;20564;42.902;25.336;2023-12-14T08:28:06;96257.41;;;10.37;88.23
34297;BME280;20564;42.902;25.336;2023-12-14T08:30:33;96277.25;;;10.23;88.78
34297;BME280;20564;42.902;25.336;2023-12-14T08:32:59;96282.09;;;10.02;88.63
34297;BME280;20564;42.902;25.336;2023-12-14T08:35:26;96283.34;;;9.81;89.05
34297;BME280;20564;42.902;25.336;2023-12-14T08:37:53;96301.41;;;9.76;89.95
34297;BME280;20564;42.902;25.336;2023-12-14T08:40:20;96317.78;;;9.70;89.51
34297;BME280;20564;42.902;25.336;2023-12-14T08:42:47;96322.38;;;9.42;91.49
34297;BME280;20564;42.902;25.336;2023-12-14T08:45:14;96329.22;;;9.35;92.98
34297;BME280;20564;42.902;25.336;2023-12-14T08:47:41;96335.50;;;9.42;92.97
34297;BME280;20564;42.902;25.336;2023-12-14T08:50:09;96346.00;;;9.42;92.08
34297;BME280;20564;42.902;25.336;2023-12-14T08:52:36;96347.09;;;9.31;93.77
34297;BME280;20564;42.902;25.336;2023-12-14T08:55:05;96357.28;;;9.34;93.56
34297;BME280;20564;42.902;25.336;2023-12-14T08:57:32;96359.53;;;9.47;93.25
34297;BME280;20564;42.902;25.336;2023-12-14T08:59:58;96360.88;;;9.51;91.62
34297;BME280;20564;42.902;25.336;2023-12-14T09:02:26;96368.28;;;9.56;91.46
34297;BME280;20564;42.902;25.336;2023-12-14T09:04:53;96374.69;;;9.61;91.24
34297;BME280;20564;42.902;25.336;2023-12-14T09:07:20;96365.38;;;9.67;90.56
34297;BME280;20564;42.902;25.336;2023-12-14T09:09:46;96362.59;;;9.69;90.44
34297;BME280;20564;42.902;25.336;2023-12-14T09:12:13;96361.00;;;9.76;90.45
34297;BME280;20564;42.902;25.336;2023-12-14T09:14:40;96354.97;;;9.83;89.37
34297;BME280;20564;42.902;25.336;2023-12-14T09:17:07;96352.72;;;9.88;89.07
34297;BME280;20564;42.902;25.336;2023-12-14T09:19:34;96370.00;;;9.99;88.95
34297;BME280;20564;42.902;25.336;2023-12-14T09:22:01;96362.47;;;10.04;88.83
34297;BME280;20564;42.902;25.336;2023-12-14T09:24:28;96371.75;;;10.17;88.27
34297;BME280;20564;42.902;25.336;2023-12-14T09:26:55;96381.34;;;10.26;88.61
34297;BME280;20564;42.902;25.336;2023-12-14T09:29:22;96388.75;;;10.30;87.61
34297;BME280;20564;42.902;25.336;2023-12-14T09:31:49;96375.66;;;10.38;86.50
34297;BME280;20564;42.902;25.336;2023-12-14T09:34:17;96366.91;;;10.38;86.94
34297;BME280;20564;42.902;25.336;2023-12-14T09:36:44;96378.63;;;10.44;86.84
34297;BME280;20564;42.902;25.336;2023-12-14T09:39:14;96370.22;;;10.48;86.48
34297;BME280;20564;42.902;25.336;2023-12-14T09:41:42;96376.81;;;10.52;85.68
34297;BME280;20564;42.902;25.336;2023-12-14T09:44:09;96385.59;;;10.61;86.66
34297;BME280;20564;42.902;25.336;2023-12-14T09:46:37;96379.84;;;10.66;86.72
34297;BME280;20564;42.902;25.336;2023-12-14T09:49:05;96378.03;;;10.66;85.45
34297;BME280;20564;42.902;25.336;2023-12-14T09:51:38;96385.94;;;10.74;86.07
34297;BME280;20564;42.902;25.336;2023-12-14T09:54:07;96382.00;;;10.78;85.82
34297;BME280;20564;42.902;25.336;2023-12-14T09:56:35;96386.81;;;10.91;85.72
34297;BME280;20564;42.902;25.336;2023-12-14T09:59:02;96385.31;;;10.97;84.96
34297;BME280;20564;42.902;25.336;2023-12-14T10:01:30;96381.72;;;11.06;85.38
34297;BME280;20564;42.902;25.336;2023-12-14T10:04:12;96372.81;;;11.15;85.32
34297;BME280;20564;42.902;25.336;2023-12-14T10:06:41;96375.16;;;11.26;84.78
34297;BME280;20564;42.902;25.336;2023-12-14T10:09:09;96380.25;;;11.28;84.53
34297;BME280;20564;42.902;25.336;2023-12-14T10:11:40;96386.34;;;11.37;84.13
34297;BME280;20564;42.902;25.336;2023-12-14T10:14:24;96372.34;;;11.28;85.65
34297;BME280;20564;42.902;25.336;2023-12-14T10:16:52;96380.91;;;11.30;85.10
34297;BME280;20564;42.902;25.336;2023-12-14T10:19:29;96393.75;;;11.25;85.53
34297;BME280;20564;42.902;25.336;2023-12-14T10:21:56;96390.97;;;11.26;85.10
34297;BME280;20564;42.902;25.336;2023-12-14T10:24:23;96390.28;;;11.24;83.20
34297;BME280;20564;42.902;25.336;2023-12-14T10:26:50;96387.66;;;11.24;81.85
34297;BME280;20564;42.902;25.336;2023-12-14T10:29:18;96395.88;;;11.29;81.31
34297;BME280;20564;42.902;25.336;2023-12-14T10:31:45;96395.56;;;11.32;81.37
34297;BME280;20564;42.902;25.336;2023-12-14T10:34:12;96401.16;;;11.29;81.50
34297;BME280;20564;42.902;25.336;2023-12-14T10:36:40;96400.50;;;11.35;81.18
34297;BME280;20564;42.902;25.336;2023-12-14T10:39:14;96401.16;;;11.46;79.91
34297;BME280;20564;42.902;25.336;2023-12-14T10:41:45;96393.94;;;11.56;80.87
34297;BME280;20564;42.902;25.336;2023-12-14T10:44:21;96380.38;;;11.75;80.14
34297;BME280;20564;42.902;25.336;2023-12-14T10:47:12;96365.88;;;11.79;79.71
34297;BME280;20564;42.902;25.336;2023-12-14T10:49:43;96384.34;;;11.88;79.80
34297;BME280;20564;42.902;25.336;2023-12-14T10:52:13;96381.72;;;11.96;79.08
34297;BME280;20564;42.902;25.336;2023-12-14T10:54:41;96386.28;;;12.02;78.48
34297;BME280;20564;42.902;25.336;2023-12-14T10:57:11;96393.53;;;12.08;78.09
34297;BME280;20564;42.902;25.336;2023-12-14T10:59:38;96397.66;;;12.11;77.15
34297;BME280;20564;42.902;25.336;2023-12-14T11:02:09;96402.41;;;12.15;78.80
34297;BME280;20564;42.902;25.336;2023-12-14T11:05:02;96396.81;;;12.18;77.83
34297;BME280;20564;42.902;25.336;2023-12-14T11:07:46;96400.41;;;12.25;77.88
34297;BME280;20564;42.902;25.336;2023-12-14T11:10:19;96403.38;;;12.22;77.59
34297;BME280;20564;42.902;25.336;2023-12-14T11:13:15;96409.63;;;12.29;78.16
34297;BME280;20564;42.902;25.336;2023-12-14T11:15:48;96400.38;;;12.34;77.80
34297;BME280;20564;42.902;25.336;2023-12-14T11:23:14;96404.28;;;12.46;76.09
34297;BME280;20564;42.902;25.336;2023-12-14T11:25:41;96414.16;;;12.52;75.93
34297;BME280;20564;42.902;25.336;2023-12-14T11:28:13;96403.94;;;12.49;76.53
34297;BME280;20564;42.902;25.336;2023-12-14T11:30:42;96413.34;;;12.51;76.11
34297;BME280;20564;42.902;25.336;2023-12-14T11:33:21;96414.47;;;12.57;76.26
34297;BME280;20564;42.902;25.336;2023-12-14T11:35:50;96396.81;;;12.58;76.19
34297;BME280;20564;42.902;25.336;2023-12-14T11:38:18;96406.53;;;12.57;76.16
34297;BME280;20564;42.902;25.336;2023-12-14T11:40:48;96392.72;;;12.55;75.88
34297;BME280;20564;42.902;25.336;2023-12-14T11:43:16;96387.44;;;12.55;75.80
34297;BME280;20564;42.902;25.336;2023-12-14T11:45:43;96396.03;;;12.49;76.62
34297;BME280;20564;42.902;25.336;2023-12-14T11:48:12;96410.19;;;12.56;75.63
34297;BME280;20564;42.902;25.336;2023-12-14T11:50:40;96422.22;;;12.50;76.04
34297;BME280;20564;42.902;25.336;2023-12-14T11:53:09;96426.41;;;12.45;74.58
34297;BME280;20564;42.902;25.336;2023-12-14T11:55:39;96423.47;;;12.40;75.57
34297;BME280;20564;42.902;25.336;2023-12-14T11:58:07;96425.72;;;12.43;76.48
34297;BME280;20564;42.902;25.336;2023-12-14T12:00:34;96426.44;;;12.37;76.17
34297;BME280;20564;42.902;25.336;2023-12-14T12:03:16;96425.81;;;12.26;77.07
34297;BME280;20564;42.902;25.336;2023-12-14T12:05:47;96436.03;;;12.29;76.98
34297;BME280;20564;42.902;25.336;2023-12-14T12:08:16;96437.50;;;12.24;77.87
34297;BME280;20564;42.902;25.336;2023-12-14T12:10:46;96439.03;;;12.18;77.95
34297;BME280;20564;42.902;25.336;2023-12-14T12:13:16;96433.09;;;12.08;78.40
34297;BME280;20564;42.902;25.336;2023-12-14T12:15:43;96450.56;;;12.09;79.79
34297;BME280;20564;42.902;25.336;2023-12-14T12:18:12;96469.03;;;12.09;78.92
34297;BME280;20564;42.902;25.336;2023-12-14T12:20:40;96474.00;;;12.04;78.91
34297;BME280;20564;42.902;25.336;2023-12-14T12:23:07;96463.09;;;11.99;79.48
34297;BME280;20564;42.902;25.336;2023-12-14T12:25:34;96461.66;;;11.96;78.92
34297;BME280;20564;42.902;25.336;2023-12-14T12:28:02;96473.66;;;11.91;80.26
34297;BME280;20564;42.902;25.336;2023-12-14T12:30:33;96468.22;;;11.84;80.34
34297;BME280;20564;42.902;25.336;2023-12-14T12:33:04;96469.03;;;11.85;80.85
34297;BME280;20564;42.902;25.336;2023-12-14T12:35:32;96469.03;;;11.85;80.97
34297;BME280;20564;42.902;25.336;2023-12-14T12:38:00;96467.69;;;11.80;80.58
34297;BME280;20564;42.902;25.336;2023-12-14T12:40:26;96467.41;;;11.67;82.45
34297;BME280;20564;42.902;25.336;2023-12-14T12:42:53;96464.75;;;11.59;82.71
34297;BME280;20564;42.902;25.336;2023-12-14T12:45:20;96467.72;;;11.64;83.01
34297;BME280;20564;42.902;25.336;2023-12-14T12:47:49;96464.41;;;11.62;82.18
34297;BME280;20564;42.902;25.336;2023-12-14T12:50:17;96470.03;;;11.59;83.46
34297;BME280;20564;42.902;25.336;2023-12-14T12:52:44;96454.88;;;11.53;82.84
34297;BME280;20564;42.902;25.336;2023-12-14T12:55:15;96479.56;;;11.60;82.39
34297;BME280;20564;42.902;25.336;2023-12-14T12:57:42;96464.59;;;11.61;82.74
34297;BME280;20564;42.902;25.336;2023-12-14T13:00:10;96466.41;;;11.60;83.60